Time;durP1;ratioP1;P1;durP2;ratioP2;P2;SDS_P1;SDS_P2;PMS_P1;PMS_P2;Temp;Humidity;BMP_temperature;BMP_pressure;BME280_temperature;BME280_humidity;BME280_pressure;Samples;Min_cycle;Max_cycle;Signal;HPM_P1;HPM_P2
2022/12/28 00:00:28;;;;;;;0.95;0.60;;;;;;;;;;4517526;28;20033;-63
2022/12/28 00:02:39;;;;;;;0.77;0.52;;;;;;;;;;4498824;28;20094;-64
2022/12/28 00:04:49;;;;;;;1.02;0.60;;;;;;;;;;4517102;28;20087;-62
2022/12/28 00:06:59;;;;;;;0.75;0.60;;;;;;;;;;4517665;28;20045;-62
2022/12/28 00:09:10;;;;;;;1.00;0.60;;;;;;;;;;4517833;28;20041;-63
2022/12/28 00:11:22;;;;;;;0.60;0.60;;;;;;;;;;4517615;28;20089;-64
2022/12/28 00:13:33;;;;;;;1.17;0.60;;;;;;;;;;4527414;23;20056;-64
2022/12/28 00:15:43;;;;;;;0.50;0.50;;;;;;;;;;4543077;28;20091;-64
2022/12/28 00:17:55;;;;;;;0.65;0.60;;;;;;;;;;4542854;28;20098;-63
2022/12/28 00:20:05;;;;;;;0.73;0.60;;;;;;;;;;4542498;28;20040;-64
2022/12/28 00:22:16;;;;;;;1.30;0.70;;;;;;;;;;4537173;28;20038;-64
2022/12/28 00:24:26;;;;;;;0.90;0.50;;;;;;;;;;4527723;28;20048;-64
2022/12/28 00:26:36;;;;;;;0.68;0.60;;;;;;;;;;4527677;28;20516;-63
2022/12/28 00:28:47;;;;;;;1.10;0.60;;;;;;;;;;4527343;28;20052;-64
2022/12/28 00:30:57;;;;;;;0.60;0.50;;;;;;;;;;4512886;28;20038;-64
2022/12/28 00:33:08;;;;;;;0.50;0.50;;;;;;;;;;4526706;28;20132;-64
2022/12/28 00:35:18;;;;;;;1.52;0.60;;;;;;;;;;4528673;28;20119;-64
2022/12/28 00:37:28;;;;;;;0.80;0.50;;;;;;;;;;4527989;28;20049;-64
2022/12/28 00:39:40;;;;;;;0.77;0.57;;;;;;;;;;4527908;28;20695;-64
2022/12/28 00:41:50;;;;;;;1.15;0.47;;;;;;;;;;4528865;28;20045;-64
2022/12/28 00:44:00;;;;;;;0.68;0.50;;;;;;;;;;4527862;28;20048;-64
2022/12/28 00:46:11;;;;;;;0.60;0.60;;;;;;;;;;4527820;28;20053;-64
2022/12/28 00:48:21;;;;;;;0.70;0.50;;;;;;;;;;4526438;28;20049;-64
2022/12/28 00:50:31;;;;;;;0.40;0.40;;;;;;;;;;4526360;28;20069;-64
2022/12/28 00:52:42;;;;;;;0.93;0.60;;;;;;;;;;4513445;28;20037;-64
2022/12/28 00:54:52;;;;;;;0.90;0.43;;;;;;;;;;4529429;28;20037;-63
2022/12/28 00:57:02;;;;;;;0.60;0.60;;;;;;;;;;4524307;28;20034;-64
2022/12/28 00:59:12;;;;;;;0.68;0.60;;;;;;;;;;4526200;28;20635;-64
2022/12/28 01:01:23;;;;;;;1.02;0.50;;;;;;;;;;4513122;28;20052;-64
2022/12/28 01:03:34;;;;;;;0.75;0.60;;;;;;;;;;4526983;28;20052;-64
2022/12/28 01:05:44;;;;;;;0.73;0.55;;;;;;;;;;4513165;28;20021;-64
2022/12/28 01:07:54;;;;;;;0.80;0.47;;;;;;;;;;4511990;28;20037;-64
2022/12/28 01:10:05;;;;;;;0.60;0.60;;;;;;;;;;4508372;28;20048;-64
2022/12/28 01:12:15;;;;;;;0.60;0.40;;;;;;;;;;4511740;28;20045;-64
2022/12/28 01:14:25;;;;;;;0.68;0.50;;;;;;;;;;4518195;28;20029;-64
2022/12/28 01:16:36;;;;;;;0.55;0.52;;;;;;;;;;4528219;28;20782;-64
2022/12/28 01:18:47;;;;;;;0.40;0.40;;;;;;;;;;4512158;28;20359;-64
2022/12/28 01:20:57;;;;;;;0.50;0.50;;;;;;;;;;4528511;28;20417;-64
2022/12/28 01:23:07;;;;;;;0.60;0.50;;;;;;;;;;4528289;28;20386;-64
2022/12/28 01:25:18;;;;;;;0.68;0.63;;;;;;;;;;4509048;28;20044;-64
2022/12/28 01:27:28;;;;;;;0.60;0.50;;;;;;;;;;4527089;28;20596;-63
2022/12/28 01:29:38;;;;;;;0.50;0.50;;;;;;;;;;4507943;28;20045;-64
2022/12/28 01:31:48;;;;;;;1.20;0.60;;;;;;;;;;4510896;28;20131;-63
2022/12/28 01:33:59;;;;;;;1.05;0.60;;;;;;;;;;4524516;28;20041;-63
2022/12/28 01:36:12;;;;;;;0.43;0.43;;;;;;;;;;4526872;28;20025;-63
2022/12/28 01:38:22;;;;;;;0.55;0.50;;;;;;;;;;4526368;28;20037;-63
2022/12/28 01:40:33;;;;;;;0.50;0.50;;;;;;;;;;4524140;28;20037;-64
2022/12/28 01:42:43;;;;;;;0.50;0.50;;;;;;;;;;4527646;28;20080;-63
2022/12/28 01:44:53;;;;;;;0.90;0.50;;;;;;;;;;4510942;28;20044;-63
2022/12/28 01:47:05;;;;;;;1.02;0.47;;;;;;;;;;4526819;28;20471;-63
2022/12/28 01:49:18;;;;;;;0.70;0.50;;;;;;;;;;4527490;28;20075;-63
2022/12/28 01:51:32;;;;;;;0.50;0.47;;;;;;;;;;4510179;28;20044;-63
2022/12/28 01:53:43;;;;;;;0.80;0.55;;;;;;;;;;4526665;28;20092;-63
2022/12/28 01:55:53;;;;;;;1.10;0.50;;;;;;;;;;4525049;28;20037;-63
2022/12/28 01:58:24;;;;;;;0.50;0.50;;;;;;;;;;4512050;28;20050;-63
2022/12/28 02:00:34;;;;;;;0.82;0.47;;;;;;;;;;4524601;28;20131;-63
2022/12/28 02:02:47;;;;;;;0.60;0.50;;;;;;;;;;4525998;28;20087;-63
2022/12/28 02:04:58;;;;;;;0.82;0.43;;;;;;;;;;4526266;28;20768;-63
2022/12/28 02:07:08;;;;;;;0.77;0.50;;;;;;;;;;4528531;28;20104;-63
2022/12/28 02:09:20;;;;;;;0.90;0.50;;;;;;;;;;4525667;28;20037;-63
2022/12/28 02:11:31;;;;;;;0.85;0.55;;;;;;;;;;4526921;28;20093;-62
2022/12/28 02:13:43;;;;;;;0.63;0.50;;;;;;;;;;4523798;28;20049;-64
2022/12/28 02:15:53;;;;;;;2.33;0.60;;;;;;;;;;4528015;28;20044;-63
2022/12/28 02:18:03;;;;;;;1.25;0.52;;;;;;;;;;4526603;28;20068;-64
2022/12/28 02:20:14;;;;;;;0.50;0.50;;;;;;;;;;4512181;28;20485;-63
2022/12/28 02:22:24;;;;;;;0.55;0.50;;;;;;;;;;4526260;28;20519;-63
2022/12/28 02:24:46;;;;;;;0.85;0.60;;;;;;;;;;4527552;28;20052;-63
2022/12/28 02:27:15;;;;;;;0.55;0.50;;;;;;;;;;4527409;28;20396;-63
2022/12/28 02:29:45;;;;;;;0.52;0.50;;;;;;;;;;4509944;28;20076;-64
2022/12/28 02:32:06;;;;;;;0.60;0.40;;;;;;;;;;4526137;28;20111;-63
2022/12/28 02:34:22;;;;;;;0.60;0.60;;;;;;;;;;4525960;28;20144;-63
2022/12/28 02:36:35;;;;;;;0.88;0.43;;;;;;;;;;4517131;28;20853;-63
2022/12/28 02:38:54;;;;;;;0.55;0.50;;;;;;;;;;4525304;28;20029;-63
2022/12/28 02:41:09;;;;;;;0.93;0.47;;;;;;;;;;4525549;28;21211;-63
2022/12/28 02:43:20;;;;;;;0.52;0.50;;;;;;;;;;4525468;28;20076;-63
2022/12/28 02:50:41;;;;;;;0.82;0.70;;;;;;;;;;4524191;28;20044;-63
2022/12/28 02:53:04;;;;;;;1.15;0.50;;;;;;;;;;4510240;28;20064;-64
2022/12/28 02:57:53;;;;;;;0.50;0.50;;;;;;;;;;4507498;28;20046;-63
2022/12/28 03:00:08;;;;;;;0.52;0.50;;;;;;;;;;4525272;28;20786;-63
2022/12/28 03:02:18;;;;;;;0.60;0.60;;;;;;;;;;4493793;28;20037;-63
2022/12/28 03:04:40;;;;;;;0.80;0.60;;;;;;;;;;4511319;28;20077;-64
2022/12/28 03:09:43;;;;;;;0.50;0.50;;;;;;;;;;4523871;28;20037;-63
2022/12/28 03:12:00;;;;;;;0.40;0.40;;;;;;;;;;4496556;28;20850;-63
2022/12/28 03:14:18;;;;;;;0.40;0.40;;;;;;;;;;4499089;28;20042;-64
2022/12/28 03:16:28;;;;;;;0.50;0.50;;;;;;;;;;4507819;28;20038;-62
2022/12/28 03:31:13;;;;;;;0.40;0.40;;;;;;;;;;4505762;28;20041;-63
2022/12/28 03:33:30;;;;;;;0.50;0.45;;;;;;;;;;4492827;28;20038;-64
2022/12/28 03:35:47;;;;;;;0.50;0.40;;;;;;;;;;4507713;28;20029;-64
2022/12/28 03:37:57;;;;;;;;;;;;;;;;;;4498635;28;20157;-63
2022/12/28 03:40:08;;;;;;;0.40;0.40;;;;;;;;;;4498494;28;19913;-64
2022/12/28 03:44:59;;;;;;;0.40;0.40;;;;;;;;;;4492505;28;20046;-63
2022/12/28 03:47:12;;;;;;;0.60;0.52;;;;;;;;;;4505464;28;20084;-64
2022/12/28 03:49:23;;;;;;;0.30;0.30;;;;;;;;;;4488383;28;20100;-64
2022/12/28 03:51:34;;;;;;;0.65;0.50;;;;;;;;;;4482635;28;20042;-64
2022/12/28 03:53:53;;;;;;;0.40;0.40;;;;;;;;;;4490537;28;20044;-63
2022/12/28 03:56:10;;;;;;;0.40;0.40;;;;;;;;;;4492750;28;20081;-63
2022/12/28 03:58:21;;;;;;;0.77;0.50;;;;;;;;;;4484992;28;20042;-63
2022/12/28 04:00:33;;;;;;;0.40;0.40;;;;;;;;;;4493823;28;20069;-63
2022/12/28 04:02:43;;;;;;;0.30;0.30;;;;;;;;;;4509371;28;20116;-63
2022/12/28 04:04:54;;;;;;;0.63;0.52;;;;;;;;;;4510910;28;20053;-63
2022/12/28 04:07:04;;;;;;;0.40;0.38;;;;;;;;;;4496239;28;20030;-64
2022/12/28 04:09:14;;;;;;;0.57;0.40;;;;;;;;;;4510469;28;20099;-63
2022/12/28 04:11:28;;;;;;;0.47;0.47;;;;;;;;;;4495102;28;20116;-64
2022/12/28 04:13:39;;;;;;;0.55;0.40;;;;;;;;;;4508958;28;20076;-63
2022/12/28 04:15:59;;;;;;;0.32;0.32;;;;;;;;;;4494516;28;20782;-63
2022/12/28 04:18:10;;;;;;;0.40;0.40;;;;;;;;;;4495881;28;20151;-64
2022/12/28 04:20:21;;;;;;;0.40;0.40;;;;;;;;;;4496758;28;20038;-63
2022/12/28 04:22:33;;;;;;;0.40;0.40;;;;;;;;;;4495444;28;20039;-64
2022/12/28 04:24:43;;;;;;;0.60;0.50;;;;;;;;;;4510492;28;20045;-63
2022/12/28 04:26:54;;;;;;;0.40;0.40;;;;;;;;;;4495346;28;20034;-63
2022/12/28 04:29:04;;;;;;;0.47;0.40;;;;;;;;;;4495650;28;20608;-63
2022/12/28 04:31:18;;;;;;;0.60;0.60;;;;;;;;;;4510591;28;20052;-63
2022/12/28 04:33:34;;;;;;;;;;;;;;;;;;4502039;28;20113;-63
2022/12/28 04:35:45;;;;;;;0.40;0.40;;;;;;;;;;4509831;28;19973;-63
2022/12/28 04:37:55;;;;;;;0.50;0.50;;;;;;;;;;4495376;28;20546;-64
2022/12/28 04:40:06;;;;;;;0.75;0.40;;;;;;;;;;4495502;28;20101;-63
2022/12/28 04:42:16;;;;;;;0.73;0.40;;;;;;;;;;4501039;28;20121;-63
2022/12/28 04:44:27;;;;;;;0.35;0.35;;;;;;;;;;4509457;28;20052;-63
2022/12/28 04:46:37;;;;;;;0.55;0.50;;;;;;;;;;4508874;28;20222;-63
2022/12/28 04:48:47;;;;;;;0.50;0.50;;;;;;;;;;4509465;28;20034;-63
2022/12/28 04:50:57;;;;;;;0.50;0.40;;;;;;;;;;4509635;28;20041;-63
2022/12/28 04:53:08;;;;;;;0.75;0.45;;;;;;;;;;4508934;28;20045;-63
2022/12/28 04:55:18;;;;;;;0.38;0.38;;;;;;;;;;4508675;28;20034;-63
2022/12/28 04:57:28;;;;;;;0.50;0.40;;;;;;;;;;4509089;28;20038;-63
2022/12/28 04:59:39;;;;;;;0.40;0.40;;;;;;;;;;4509762;28;20063;-63
2022/12/28 05:01:49;;;;;;;0.40;0.32;;;;;;;;;;4495909;28;20034;-63
2022/12/28 05:04:00;;;;;;;0.40;0.30;;;;;;;;;;4496161;28;20561;-63
2022/12/28 05:06:11;;;;;;;0.30;0.30;;;;;;;;;;4509285;28;20026;-63
2022/12/28 05:08:22;;;;;;;0.40;0.40;;;;;;;;;;4509036;28;20049;-63
2022/12/28 05:10:32;;;;;;;0.30;0.30;;;;;;;;;;4510484;28;20041;-63
2022/12/28 05:12:42;;;;;;;0.40;0.40;;;;;;;;;;4517486;28;20038;-63
2022/12/28 05:14:53;;;;;;;0.40;0.38;;;;;;;;;;4525574;28;20037;-62
2022/12/28 05:17:03;;;;;;;0.40;0.30;;;;;;;;;;4526396;28;20477;-63
2022/12/28 05:19:14;;;;;;;0.38;0.30;;;;;;;;;;4527075;28;20060;-63
2022/12/28 05:21:25;;;;;;;0.65;0.40;;;;;;;;;;4528033;28;20449;-63
2022/12/28 05:23:36;;;;;;;0.28;0.28;;;;;;;;;;4527146;28;20111;-63
2022/12/28 05:25:51;;;;;;;0.85;0.45;;;;;;;;;;4527794;28;20029;-63
2022/12/28 05:28:01;;;;;;;0.45;0.40;;;;;;;;;;4526280;28;20104;-63
2022/12/28 05:30:12;;;;;;;0.40;0.40;;;;;;;;;;4526845;28;20121;-64
2022/12/28 05:32:22;;;;;;;0.65;0.32;;;;;;;;;;4511107;28;20422;-63
2022/12/28 05:34:32;;;;;;;0.30;0.30;;;;;;;;;;4527713;28;20208;-63
2022/12/28 05:36:42;;;;;;;0.55;0.30;;;;;;;;;;4526380;28;20033;-63
2022/12/28 05:38:53;;;;;;;0.30;0.30;;;;;;;;;;4526383;28;20041;-63
2022/12/28 05:41:08;;;;;;;0.40;0.40;;;;;;;;;;4527500;28;20106;-62
2022/12/28 05:43:18;;;;;;;0.40;0.40;;;;;;;;;;4527908;28;20156;-63
2022/12/28 05:45:28;;;;;;;0.50;0.50;;;;;;;;;;4526600;28;20037;-63
2022/12/28 05:47:38;;;;;;;0.43;0.40;;;;;;;;;;4525858;28;20030;-63
2022/12/28 05:49:49;;;;;;;0.40;0.32;;;;;;;;;;4526454;28;20495;-63
2022/12/28 05:51:59;;;;;;;0.40;0.40;;;;;;;;;;4527178;28;20548;-63
2022/12/28 05:54:09;;;;;;;0.57;0.40;;;;;;;;;;4526153;28;20059;-62
2022/12/28 05:56:24;;;;;;;0.40;0.40;;;;;;;;;;4525771;28;20029;-63
2022/12/28 05:58:34;;;;;;;0.30;0.30;;;;;;;;;;4525692;28;20037;-63
2022/12/28 06:00:45;;;;;;;0.30;0.30;;;;;;;;;;4526296;28;20037;-63
2022/12/28 06:02:55;;;;;;;0.80;0.75;;;;;;;;;;4526117;28;20041;-63
2022/12/28 06:05:06;;;;;;;0.52;0.30;;;;;;;;;;4526679;28;20477;-63
2022/12/28 06:07:16;;;;;;;0.50;0.50;;;;;;;;;;4527185;28;20967;-63
2022/12/28 06:09:26;;;;;;;0.52;0.40;;;;;;;;;;4525700;28;20048;-63
2022/12/28 06:11:37;;;;;;;0.60;0.60;;;;;;;;;;4526582;28;20037;-63
2022/12/28 06:13:47;;;;;;;0.40;0.30;;;;;;;;;;4525958;28;20306;-63
2022/12/28 06:15:58;;;;;;;0.50;0.50;;;;;;;;;;4525626;28;20095;-63
2022/12/28 06:18:08;;;;;;;0.22;0.22;;;;;;;;;;4525637;28;20049;-64
2022/12/28 06:20:18;;;;;;;0.30;0.30;;;;;;;;;;4522464;28;20064;-64
2022/12/28 06:22:29;;;;;;;0.57;0.40;;;;;;;;;;4524289;28;20310;-63
2022/12/28 06:24:39;;;;;;;0.40;0.40;;;;;;;;;;4526120;28;20033;-63
2022/12/28 06:26:49;;;;;;;0.43;0.30;;;;;;;;;;4525206;28;20049;-63
2022/12/28 06:29:00;;;;;;;0.40;0.40;;;;;;;;;;4525972;28;20037;-63
2022/12/28 06:31:15;;;;;;;0.55;0.40;;;;;;;;;;4526182;28;20083;-63
2022/12/28 06:33:25;;;;;;;0.20;0.20;;;;;;;;;;4525860;28;20041;-64
2022/12/28 06:35:39;;;;;;;0.30;0.30;;;;;;;;;;4509991;28;20093;-64
2022/12/28 06:37:49;;;;;;;0.40;0.32;;;;;;;;;;4526167;28;20127;-64
2022/12/28 06:40:00;;;;;;;0.40;0.40;;;;;;;;;;4525999;28;20080;-64
2022/12/28 06:42:10;;;;;;;0.40;0.25;;;;;;;;;;4526234;28;20066;-64
2022/12/28 06:44:20;;;;;;;0.43;0.40;;;;;;;;;;4526840;28;20413;-64
2022/12/28 06:46:31;;;;;;;0.40;0.40;;;;;;;;;;4526749;28;20572;-64
2022/12/28 06:48:41;;;;;;;0.55;0.47;;;;;;;;;;4528132;28;20125;-64
2022/12/28 06:50:55;;;;;;;0.30;0.30;;;;;;;;;;4526139;28;20040;-64
2022/12/28 06:53:05;;;;;;;0.43;0.40;;;;;;;;;;4526105;28;20038;-64
2022/12/28 06:55:16;;;;;;;0.40;0.40;;;;;;;;;;4526273;28;20811;-64
2022/12/28 06:57:26;;;;;;;0.32;0.30;;;;;;;;;;4525954;28;20049;-63
2022/12/28 06:59:36;;;;;;;0.30;0.30;;;;;;;;;;4524055;28;20118;-63
2022/12/28 07:01:47;;;;;;;0.30;0.30;;;;;;;;;;4527294;28;20592;-64
2022/12/28 07:03:57;;;;;;;0.30;0.30;;;;;;;;;;4525485;28;20038;-63
2022/12/28 07:06:08;;;;;;;0.20;0.20;;;;;;;;;;4509173;28;20042;-63
2022/12/28 07:08:18;;;;;;;0.40;0.30;;;;;;;;;;4525134;28;20281;-64
2022/12/28 07:10:29;;;;;;;0.32;0.30;;;;;;;;;;4525332;28;20039;-63
2022/12/28 07:12:39;;;;;;;0.30;0.30;;;;;;;;;;4523946;28;20070;-63
2022/12/28 07:14:49;;;;;;;0.20;0.20;;;;;;;;;;4509011;28;20033;-63
2022/12/28 07:16:59;;;;;;;0.32;0.20;;;;;;;;;;4525224;28;20148;-63
2022/12/28 07:19:10;;;;;;;0.20;0.20;;;;;;;;;;4508928;28;20038;-64
2022/12/28 07:21:24;;;;;;;0.40;0.40;;;;;;;;;;4524886;28;20149;-64
2022/12/28 07:23:35;;;;;;;0.20;0.20;;;;;;;;;;4509446;28;20103;-64
2022/12/28 07:25:45;;;;;;;0.20;0.20;;;;;;;;;;4524078;28;20033;-64
2022/12/28 07:27:55;;;;;;;0.30;0.30;;;;;;;;;;4523812;28;20033;-63
2022/12/28 07:30:06;;;;;;;0.20;0.20;;;;;;;;;;4523521;28;20026;-63
2022/12/28 07:32:16;;;;;;;0.30;0.25;;;;;;;;;;4526934;28;20052;-64
2022/12/28 07:34:26;;;;;;;0.30;0.30;;;;;;;;;;4526800;28;20033;-63
2022/12/28 07:36:37;;;;;;;0.30;0.30;;;;;;;;;;4527113;28;20033;-64
2022/12/28 07:38:47;;;;;;;0.20;0.20;;;;;;;;;;4526517;28;20037;-63
2022/12/28 07:41:05;;;;;;;0.20;0.20;;;;;;;;;;4527567;28;20037;-63
2022/12/28 07:43:15;;;;;;;0.75;0.20;;;;;;;;;;4507982;28;20549;-63
2022/12/28 07:45:26;;;;;;;0.20;0.20;;;;;;;;;;4510404;28;20404;-63
2022/12/28 07:47:36;;;;;;;0.30;0.30;;;;;;;;;;4526614;28;20036;-64
2022/12/28 07:49:46;;;;;;;0.20;0.20;;;;;;;;;;4525321;28;20044;-64
2022/12/28 07:51:56;;;;;;;0.30;0.30;;;;;;;;;;4526506;28;20049;-64
2022/12/28 07:54:07;;;;;;;0.30;0.30;;;;;;;;;;4526751;28;20128;-64
2022/12/28 07:56:18;;;;;;;0.30;0.30;;;;;;;;;;4526446;28;20459;-64
2022/12/28 07:58:28;;;;;;;0.50;0.50;;;;;;;;;;4512435;28;20041;-65
2022/12/28 08:00:38;;;;;;;0.50;0.40;;;;;;;;;;4526931;28;20060;-64
2022/12/28 08:02:49;;;;;;;0.30;0.30;;;;;;;;;;4523666;28;20025;-64
2022/12/28 08:04:59;;;;;;;0.30;0.30;;;;;;;;;;4523787;28;20675;-64
2022/12/28 08:07:09;;;;;;;0.30;0.25;;;;;;;;;;4526039;28;20032;-62
2022/12/28 08:09:20;;;;;;;0.32;0.32;;;;;;;;;;4526648;28;20125;-62
2022/12/28 08:11:32;;;;;;;0.20;0.20;;;;;;;;;;4524046;28;20651;-62
2022/12/28 08:13:44;;;;;;;0.30;0.30;;;;;;;;;;4525497;28;20108;-62
2022/12/28 08:15:54;;;;;;;0.50;0.30;;;;;;;;;;4524742;28;20078;-61
2022/12/28 08:18:04;;;;;;;0.28;0.20;;;;;;;;;;4524393;28;20154;-62
2022/12/28 08:20:15;;;;;;;0.10;0.10;;;;;;;;;;4511798;28;20048;-62
2022/12/28 08:22:25;;;;;;;0.20;0.20;;;;;;;;;;4525706;28;20125;-63
2022/12/28 08:24:35;;;;;;;0.32;0.28;;;;;;;;;;4525661;28;20049;-61
2022/12/28 08:26:46;;;;;;;0.17;0.17;;;;;;;;;;4527935;28;20032;-62
2022/12/28 08:28:58;;;;;;;0.20;0.20;;;;;;;;;;4527862;28;20525;-63
2022/12/28 08:31:13;;;;;;;0.40;0.40;;;;;;;;;;4512699;28;20136;-63
2022/12/28 08:33:23;;;;;;;0.30;0.30;;;;;;;;;;4517061;28;20084;-64
2022/12/28 08:35:33;;;;;;;0.28;0.28;;;;;;;;;;4524084;28;20041;-63
2022/12/28 08:37:44;;;;;;;0.40;0.40;;;;;;;;;;4517932;28;20739;-63
2022/12/28 08:39:54;;;;;;;0.38;0.35;;;;;;;;;;4525623;28;20037;-63
2022/12/28 08:42:04;;;;;;;0.22;0.20;;;;;;;;;;4525417;28;20052;-63
2022/12/28 08:44:15;;;;;;;0.20;0.20;;;;;;;;;;4510970;28;20898;-63
2022/12/28 08:46:27;;;;;;;0.22;0.22;;;;;;;;;;4525614;28;20409;-63
2022/12/28 08:48:37;;;;;;;0.30;0.20;;;;;;;;;;4525866;28;20033;-62
2022/12/28 08:50:47;;;;;;;0.20;0.20;;;;;;;;;;4527570;28;20071;-62
2022/12/28 08:52:58;;;;;;;0.30;0.28;;;;;;;;;;4525545;28;20044;-63
2022/12/28 08:55:08;;;;;;;0.30;0.30;;;;;;;;;;4525680;28;20041;-63
2022/12/28 08:57:18;;;;;;;0.30;0.30;;;;;;;;;;4526895;28;20057;-63
2022/12/28 08:59:29;;;;;;;0.40;0.30;;;;;;;;;;4527659;28;20111;-64
2022/12/28 09:01:39;;;;;;;0.25;0.25;;;;;;;;;;4525789;28;20048;-63
2022/12/28 09:03:50;;;;;;;0.20;0.20;;;;;;;;;;4525237;28;20029;-63
2022/12/28 09:06:02;;;;;;;0.30;0.30;;;;;;;;;;4524483;28;20051;-63
2022/12/28 09:08:12;;;;;;;0.30;0.30;;;;;;;;;;4524795;28;20021;-63
2022/12/28 09:10:23;;;;;;;0.30;0.30;;;;;;;;;;4526701;28;20025;-64
2022/12/28 09:12:33;;;;;;;0.30;0.30;;;;;;;;;;4525852;28;20051;-63
2022/12/28 09:14:43;;;;;;;0.38;0.30;;;;;;;;;;4526234;28;20064;-62
2022/12/28 09:16:54;;;;;;;0.40;0.40;;;;;;;;;;4510300;28;20063;-63
2022/12/28 09:19:05;;;;;;;0.57;0.57;;;;;;;;;;4525391;28;20104;-63
2022/12/28 09:21:16;;;;;;;0.20;0.20;;;;;;;;;;4526441;28;20041;-63
2022/12/28 09:23:26;;;;;;;0.40;0.40;;;;;;;;;;4525749;28;20231;-60
2022/12/28 09:25:37;;;;;;;0.30;0.30;;;;;;;;;;4525670;28;20583;-59
2022/12/28 09:27:48;;;;;;;0.20;0.20;;;;;;;;;;4525875;28;20037;-61
2022/12/28 09:29:58;;;;;;;0.20;0.20;;;;;;;;;;4522735;28;20037;-60
2022/12/28 09:32:09;;;;;;;0.38;0.38;;;;;;;;;;4525551;28;20754;-60
2022/12/28 09:34:19;;;;;;;0.30;0.30;;;;;;;;;;4524330;28;20435;-61
2022/12/28 09:36:31;;;;;;;0.40;0.40;;;;;;;;;;4525411;28;20040;-61
2022/12/28 09:38:42;;;;;;;0.40;0.40;;;;;;;;;;4525015;28;21026;-60
2022/12/28 09:40:52;;;;;;;0.40;0.40;;;;;;;;;;4494624;28;20560;-60
2022/12/28 09:43:04;;;;;;;0.20;0.20;;;;;;;;;;4524894;28;20044;-61
2022/12/28 09:45:25;;;;;;;0.30;0.30;;;;;;;;;;4524490;28;20044;-61
2022/12/28 09:47:46;;;;;;;0.20;0.20;;;;;;;;;;4526077;28;20033;-60
2022/12/28 09:50:02;;;;;;;0.20;0.20;;;;;;;;;;4512282;28;20784;-61
2022/12/28 09:52:12;;;;;;;0.30;0.30;;;;;;;;;;4526935;28;20177;-61
2022/12/28 09:54:23;;;;;;;0.30;0.25;;;;;;;;;;4510269;28;20212;-60
2022/12/28 09:56:38;;;;;;;0.30;0.25;;;;;;;;;;4526103;28;20026;-61
2022/12/28 09:58:50;;;;;;;0.25;0.25;;;;;;;;;;4525982;28;20634;-62
2022/12/28 10:01:01;;;;;;;0.20;0.20;;;;;;;;;;4526204;28;20040;-61
2022/12/28 10:03:23;;;;;;;0.30;0.30;;;;;;;;;;4524331;28;20761;-61
2022/12/28 10:05:34;;;;;;;0.20;0.20;;;;;;;;;;4525938;28;20037;-60
2022/12/28 10:07:44;;;;;;;0.30;0.30;;;;;;;;;;4525531;28;20037;-61
2022/12/28 10:09:54;;;;;;;0.20;0.15;;;;;;;;;;4525467;28;20064;-61
2022/12/28 10:12:12;;;;;;;0.20;0.20;;;;;;;;;;4524322;28;20787;-61
2022/12/28 10:14:23;;;;;;;0.20;0.20;;;;;;;;;;4524299;28;20116;-60
2022/12/28 10:16:40;;;;;;;0.20;0.20;;;;;;;;;;4586075;27;20483;-60
2022/12/28 10:18:50;;;;;;;0.50;0.30;;;;;;;;;;4587909;27;20046;-60
2022/12/28 10:21:01;;;;;;;0.20;0.20;;;;;;;;;;4571772;27;20501;-60
2022/12/28 10:23:13;;;;;;;0.40;0.30;;;;;;;;;;4586941;27;20036;-60
2022/12/28 10:25:25;;;;;;;0.20;0.20;;;;;;;;;;4575028;27;20066;-60
2022/12/28 10:27:35;;;;;;;0.50;0.30;;;;;;;;;;4586913;27;20032;-59
2022/12/28 10:29:45;;;;;;;0.30;0.20;;;;;;;;;;4586532;27;20448;-59
2022/12/28 10:31:57;;;;;;;0.28;0.20;;;;;;;;;;4588977;27;20039;-60
2022/12/28 10:34:13;;;;;;;0.13;0.13;;;;;;;;;;4587777;27;20116;-60
2022/12/28 10:36:23;;;;;;;0.40;0.40;;;;;;;;;;4587187;27;20071;-59
2022/12/28 10:38:34;;;;;;;0.10;0.10;;;;;;;;;;4586404;27;20111;-59
2022/12/28 10:40:44;;;;;;;0.20;0.20;;;;;;;;;;4586430;27;20126;-60
2022/12/28 10:42:55;;;;;;;0.28;0.28;;;;;;;;;;4587355;27;20039;-60
2022/12/28 10:45:15;;;;;;;0.30;0.22;;;;;;;;;;4586611;27;20048;-60
2022/12/28 10:47:30;;;;;;;0.20;0.20;;;;;;;;;;4588851;27;20085;-60
2022/12/28 10:49:46;;;;;;;0.25;0.25;;;;;;;;;;4586973;27;20051;-60
2022/12/28 10:51:57;;;;;;;0.30;0.30;;;;;;;;;;4586645;27;20032;-59
2022/12/28 10:54:22;;;;;;;0.30;0.30;;;;;;;;;;4586256;27;20130;-60
2022/12/28 10:56:43;;;;;;;0.30;0.30;;;;;;;;;;4586451;27;20612;-60
2022/12/28 10:59:09;;;;;;;0.30;0.30;;;;;;;;;;4586992;27;20250;-59
2022/12/28 11:01:24;;;;;;;0.20;0.20;;;;;;;;;;4602016;27;20843;-60
2022/12/28 11:03:35;;;;;;;0.30;0.30;;;;;;;;;;4588260;27;20098;-60
2022/12/28 11:05:46;;;;;;;0.32;0.32;;;;;;;;;;4587246;27;20903;-61
2022/12/28 11:08:03;;;;;;;0.28;0.28;;;;;;;;;;4586905;27;20085;-60
2022/12/28 11:10:13;;;;;;;;;;;;;;;;;;4585934;27;20281;-58
2022/12/28 11:12:24;;;;;;;0.32;0.30;;;;;;;;;;4587125;27;19915;-60
2022/12/28 11:14:37;;;;;;;0.20;0.20;;;;;;;;;;4570783;27;20033;-59
2022/12/28 11:16:47;;;;;;;0.93;0.30;;;;;;;;;;4588853;27;20036;-60
2022/12/28 11:18:58;;;;;;;0.20;0.20;;;;;;;;;;4588737;27;20648;-60
2022/12/28 11:21:15;;;;;;;0.25;0.20;;;;;;;;;;4587923;27;20193;-59
2022/12/28 11:23:30;;;;;;;0.20;0.20;;;;;;;;;;4587426;27;20060;-60
2022/12/28 11:25:40;;;;;;;0.30;0.30;;;;;;;;;;4584430;27;20045;-60
2022/12/28 11:27:51;;;;;;;0.28;0.28;;;;;;;;;;4575763;27;20024;-59
2022/12/28 11:30:02;;;;;;;0.20;0.20;;;;;;;;;;4573038;27;20563;-59
2022/12/28 11:32:32;;;;;;;0.45;0.30;;;;;;;;;;4554974;27;20117;-59
2022/12/28 11:34:43;;;;;;;0.95;0.20;;;;;;;;;;4575101;27;20063;-59
2022/12/28 11:36:54;;;;;;;0.20;0.20;;;;;;;;;;4574835;27;20104;-59
2022/12/28 11:39:23;;;;;;;0.30;0.22;;;;;;;;;;4574426;27;20548;-59
2022/12/28 11:41:37;;;;;;;0.55;0.20;;;;;;;;;;4574086;27;20126;-59
2022/12/28 11:43:48;;;;;;;0.20;0.20;;;;;;;;;;4573196;27;20035;-59
2022/12/28 11:46:02;;;;;;;0.35;0.20;;;;;;;;;;4576277;27;20300;-59
2022/12/28 11:48:31;;;;;;;0.30;0.30;;;;;;;;;;4573550;27;20047;-59
2022/12/28 11:50:49;;;;;;;1.27;1.00;;;;;;;;;;4573930;27;20645;-59
2022/12/28 11:53:00;;;;;;;0.80;0.77;;;;;;;;;;4574335;27;20035;-59
2022/12/28 11:55:29;;;;;;;0.47;0.47;;;;;;;;;;4573809;27;20062;-59
2022/12/28 11:57:40;;;;;;;0.40;0.40;;;;;;;;;;4574338;27;20039;-59
2022/12/28 11:59:51;;;;;;;0.57;0.50;;;;;;;;;;4572634;27;20032;-59
2022/12/28 12:02:21;;;;;;;0.80;0.80;;;;;;;;;;4574872;27;20031;-58
2022/12/28 12:04:33;;;;;;;0.40;0.40;;;;;;;;;;4561062;27;20499;-59
2022/12/28 12:06:43;;;;;;;0.65;0.65;;;;;;;;;;4572975;27;20059;-57
2022/12/28 12:08:54;;;;;;;0.60;0.60;;;;;;;;;;4573277;27;20059;-59
2022/12/28 12:11:20;;;;;;;0.82;0.60;;;;;;;;;;4575292;27;20365;-59
2022/12/28 12:13:37;;;;;;;1.58;0.90;;;;;;;;;;4576530;27;20102;-61
2022/12/28 12:15:48;;;;;;;1.27;0.90;;;;;;;;;;4572025;27;20055;-59
2022/12/28 12:18:00;;;;;;;0.40;0.40;;;;;;;;;;4575088;27;20604;-58
2022/12/28 12:20:34;;;;;;;0.60;0.60;;;;;;;;;;4574304;27;20024;-59
2022/12/28 12:22:50;;;;;;;0.52;0.40;;;;;;;;;;4571278;27;20047;-59
2022/12/28 12:25:03;;;;;;;0.52;0.52;;;;;;;;;;4575304;27;20039;-59
2022/12/28 12:27:16;;;;;;;0.60;0.60;;;;;;;;;;4574054;27;20083;-59
2022/12/28 12:29:29;;;;;;;0.50;0.50;;;;;;;;;;4574134;27;20287;-60
2022/12/28 12:31:49;;;;;;;0.50;0.45;;;;;;;;;;4574027;27;20032;-59
2022/12/28 12:34:22;;;;;;;0.60;0.60;;;;;;;;;;4573181;27;20035;-59
2022/12/28 12:36:51;;;;;;;0.40;0.40;;;;;;;;;;4574672;27;20127;-59
2022/12/28 12:39:02;;;;;;;0.70;0.70;;;;;;;;;;4571237;27;20200;-59
2022/12/28 12:41:15;;;;;;;0.40;0.40;;;;;;;;;;4574436;27;20154;-64
2022/12/28 12:43:25;;;;;;;0.20;0.20;;;;;;;;;;4574268;27;20040;-62
2022/12/28 12:45:48;;;;;;;0.40;0.40;;;;;;;;;;4574601;27;20071;-62
2022/12/28 12:48:17;;;;;;;0.70;0.70;;;;;;;;;;4561744;27;21021;-62
2022/12/28 12:50:36;;;;;;;0.50;0.50;;;;;;;;;;4572016;27;20582;-62
2022/12/28 12:52:52;;;;;;;0.40;0.40;;;;;;;;;;4573200;27;20715;-62
2022/12/28 12:55:32;;;;;;;0.30;0.30;;;;;;;;;;4588880;27;20596;-62
2022/12/28 12:57:49;;;;;;;0.30;0.30;;;;;;;;;;4534572;27;20681;-62
2022/12/28 12:59:59;;;;;;;0.50;0.50;;;;;;;;;;4573390;27;20597;-62
2022/12/28 13:02:22;;;;;;;0.28;0.28;;;;;;;;;;4574585;27;20330;-62
2022/12/28 13:04:34;;;;;;;0.30;0.30;;;;;;;;;;4574183;27;20032;-63
2022/12/28 13:06:44;;;;;;;0.30;0.30;;;;;;;;;;4573097;27;20075;-61
2022/12/28 13:08:58;;;;;;;0.68;0.45;;;;;;;;;;4572450;27;20048;-63
2022/12/28 13:11:10;;;;;;;0.38;0.38;;;;;;;;;;4560005;28;20550;-62
2022/12/28 13:13:26;;;;;;;0.30;0.30;;;;;;;;;;4573221;27;20064;-62
2022/12/28 13:15:37;;;;;;;1.02;0.40;;;;;;;;;;4573188;27;20197;-62
2022/12/28 13:18:14;;;;;;;0.38;0.30;;;;;;;;;;4561127;28;20097;-62
2022/12/28 13:20:24;;;;;;;0.40;0.40;;;;;;;;;;4574031;27;20079;-62
2022/12/28 13:22:35;;;;;;;0.30;0.30;;;;;;;;;;4572769;27;20557;-61
2022/12/28 13:24:45;;;;;;;0.40;0.40;;;;;;;;;;4573914;27;20116;-62
2022/12/28 13:26:56;;;;;;;0.30;0.30;;;;;;;;;;4573326;27;20456;-61
2022/12/28 13:29:14;;;;;;;0.90;0.60;;;;;;;;;;4573110;27;20040;-61
2022/12/28 13:31:38;;;;;;;0.55;0.55;;;;;;;;;;4562577;27;20044;-62
2022/12/28 13:33:52;;;;;;;0.43;0.40;;;;;;;;;;4574176;27;20614;-61
2022/12/28 13:36:03;;;;;;;0.28;0.28;;;;;;;;;;4571320;27;20055;-61
2022/12/28 13:38:15;;;;;;;0.50;0.50;;;;;;;;;;4572864;27;20594;-61
2022/12/28 13:40:25;;;;;;;0.63;0.55;;;;;;;;;;4570195;27;20051;-62